PWSweather.com
Personal Weather Stations
Station Observations
MAKAWAOWX1
Up Country Maui, Makawao, HI 96768

Up Country MauiMakawao, HI 96768

Lat: 20.856944, Lon: -156.3149667

Elevation: 1500

Station Type: Davis Vantage Pro

Latest ConditionsUpdated 11:30:34 PM HST Tuesday, May 26, 2015
Currently Today's Max Today's Min Today's Average
Temperature 65.9°F18.8°C 74.9°F23.8°C 56.3°F13.5°C 66.0°F18.9°C
Dew Point 59.6°F15.3°C 65.6°F18.7°C 53.4°F11.9°C 60.1°F15.6°C
Winds 0.6 mph E1.0 kmh E 5.6 mph ENE9.0 kmh ENE - 1.3 mph 2.1 kmh
Wind Gusts 2.0 mph3.2 kmh 9.0 mph14.5 kmh - -
Humidity 80% 91% 68% 82%
Pressure 29.90 in1012.5 mb 29.92 in1013.2 mb 29.84 in1010.5 mb -
Hour Temp Dew Point Humidity Winds Wind Gusts Pressure Precip Precip Rate Daily Precip Total
11:30 PM 65.9°F18.8°C 59.6°F15.3°C 80% 0.6 mph E1.0 kmh E 2.0 mph3.2 kmh 29.90 in1012.5 mb - 0.00 in0.0 mm 0.00 in0.0 mm
11:20 PM 65.9°F18.8°C 59.6°F15.3°C 80% 1.2 mph E1.9 kmh E 2.0 mph3.2 kmh 29.91 in1012.9 mb - 0.00 in0.0 mm 0.00 in0.0 mm
11:10 PM 66.0°F18.9°C 59.7°F15.4°C 80% Calm Calm -- 29.91 in1012.9 mb - 0.00 in0.0 mm 0.00 in0.0 mm
11:00 PM 66.0°F18.9°C 60.0°F15.6°C 81% Calm Calm -- 29.91 in1012.9 mb - 0.00 in0.0 mm 0.00 in0.0 mm
10:50 PM 66.1°F18.9°C 60.4°F15.8°C 82% Calm Calm -- 29.92 in1013.2 mb - 0.00 in0.0 mm 0.00 in0.0 mm
10:40 PM 66.3°F19.1°C 60.3°F15.7°C 81% 0.5 mph E0.8 kmh E -- 29.92 in1013.2 mb - 0.00 in0.0 mm 0.00 in0.0 mm
10:30 PM 66.4°F19.1°C 60.4°F15.8°C 81% 1.8 mph E2.9 kmh E 2.0 mph3.2 kmh 29.92 in1013.2 mb - 0.00 in0.0 mm 0.00 in0.0 mm
10:20 PM 66.5°F19.2°C 60.8°F16.0°C 82% Calm Calm -- 29.92 in1013.2 mb - 0.00 in0.0 mm 0.00 in0.0 mm
10:10 PM 66.4°F19.1°C 60.7°F15.9°C 82% 2.4 mph E3.9 kmh E 6.0 mph9.7 kmh 29.92 in1013.2 mb - 0.00 in0.0 mm 0.00 in0.0 mm
10:00 PM 66.3°F19.1°C 61.0°F16.1°C 83% 0.6 mph E1.0 kmh E 3.0 mph4.8 kmh 29.92 in1013.2 mb - 0.00 in0.0 mm 0.00 in0.0 mm
09:50 PM 66.3°F19.1°C 61.0°F16.1°C 83% Calm Calm -- 29.92 in1013.2 mb - 0.00 in0.0 mm 0.00 in0.0 mm
09:40 PM 66.1°F18.9°C 60.5°F15.8°C 82% Calm Calm -- 29.92 in1013.2 mb - 0.00 in0.0 mm 0.00 in0.0 mm
09:30 PM 66.0°F18.9°C 60.7°F15.9°C 83% Calm Calm -- 29.92 in1013.2 mb - 0.00 in0.0 mm 0.00 in0.0 mm
09:20 PM 65.9°F18.8°C 60.6°F15.9°C 83% Calm Calm -- 29.91 in1012.9 mb - 0.00 in0.0 mm 0.00 in0.0 mm
09:10 PM 65.9°F18.8°C 60.6°F15.9°C 83% Calm Calm -- 29.91 in1012.9 mb - 0.00 in0.0 mm 0.00 in0.0 mm
09:00 PM 66.0°F18.9°C 61.0°F16.1°C 84% Calm Calm -- 29.91 in1012.9 mb - 0.00 in0.0 mm 0.00 in0.0 mm
08:50 PM 66.1°F18.9°C 61.1°F16.2°C 84% Calm Calm -- 29.90 in1012.5 mb - 0.00 in0.0 mm 0.00 in0.0 mm
08:40 PM 66.1°F18.9°C 61.1°F16.2°C 84% Calm Calm -- 29.90 in1012.5 mb - 0.00 in0.0 mm 0.00 in0.0 mm
08:30 PM 66.0°F18.9°C 61.4°F16.3°C 85% Calm Calm -- 29.89 in1012.2 mb - 0.00 in0.0 mm 0.00 in0.0 mm
08:20 PM 66.1°F18.9°C 61.5°F16.4°C 85% 1.4 mph E2.3 kmh E -- 29.89 in1012.2 mb - 0.00 in0.0 mm 0.00 in0.0 mm
08:10 PM 66.1°F18.9°C 61.8°F16.6°C 86% Calm Calm -- 29.89 in1012.2 mb - 0.00 in0.0 mm 0.00 in0.0 mm
08:00 PM 66.2°F19.0°C 61.9°F16.6°C 86% 2.2 mph E3.5 kmh E 4.0 mph6.4 kmh 29.89 in1012.2 mb - 0.00 in0.0 mm 0.00 in0.0 mm
07:50 PM 66.3°F19.1°C 61.7°F16.5°C 85% Calm Calm -- 29.89 in1012.2 mb - 0.00 in0.0 mm 0.00 in0.0 mm
07:40 PM 66.3°F19.1°C 61.7°F16.5°C 85% Calm Calm -- 29.89 in1012.2 mb - 0.00 in0.0 mm 0.00 in0.0 mm
07:30 PM 66.4°F19.1°C 61.4°F16.3°C 84% Calm Calm -- 29.89 in1012.2 mb - 0.00 in0.0 mm 0.00 in0.0 mm
07:20 PM 66.5°F19.2°C 61.5°F16.4°C 84% Calm Calm -- 29.88 in1011.9 mb - 0.00 in0.0 mm 0.00 in0.0 mm
07:10 PM 66.6°F19.2°C 61.3°F16.3°C 83% Calm Calm -- 29.89 in1012.2 mb - 0.00 in0.0 mm 0.00 in0.0 mm
07:00 PM 66.7°F19.3°C 61.4°F16.3°C 83% Calm Calm -- 29.88 in1011.9 mb - 0.00 in0.0 mm 0.00 in0.0 mm
06:50 PM 66.9°F19.4°C 61.2°F16.2°C 82% 0.2 mph E0.3 kmh E 3.0 mph4.8 kmh 29.88 in1011.9 mb - 0.00 in0.0 mm 0.00 in0.0 mm
06:40 PM 67.1°F19.5°C 61.4°F16.3°C 82% 2.1 mph E3.4 kmh E 4.0 mph6.4 kmh 29.87 in1011.5 mb - 0.00 in0.0 mm 0.00 in0.0 mm
06:30 PM 67.2°F19.6°C 61.5°F16.4°C 82% 0.1 mph E0.2 kmh E 3.0 mph4.8 kmh 29.87 in1011.5 mb - 0.00 in0.0 mm 0.00 in0.0 mm
06:20 PM 67.3°F19.6°C 61.6°F16.4°C 82% 1.1 mph E1.8 kmh E 6.0 mph9.7 kmh 29.87 in1011.5 mb - 0.00 in0.0 mm 0.00 in0.0 mm
06:10 PM 67.5°F19.7°C 61.5°F16.4°C 81% 0.4 mph E0.6 kmh E -- 29.87 in1011.5 mb - 0.00 in0.0 mm 0.00 in0.0 mm
06:00 PM 67.7°F19.8°C 61.3°F16.3°C 80% Calm Calm -- 29.87 in1011.5 mb - 0.00 in0.0 mm 0.00 in0.0 mm
05:50 PM 67.9°F19.9°C 61.9°F16.6°C 81% 1.8 mph E2.9 kmh E 6.0 mph9.7 kmh 29.87 in1011.5 mb - 0.00 in0.0 mm 0.00 in0.0 mm
05:40 PM 68.1°F20.1°C 62.0°F16.7°C 81% 1.4 mph E2.3 kmh E 2.0 mph3.2 kmh 29.87 in1011.5 mb - 0.00 in0.0 mm 0.00 in0.0 mm
05:30 PM 68.4°F20.2°C 62.0°F16.7°C 80% 2.4 mph E3.9 kmh E 5.0 mph8.0 kmh 29.86 in1011.2 mb - 0.00 in0.0 mm 0.00 in0.0 mm
05:20 PM 68.5°F20.3°C 62.5°F16.9°C 81% 3.1 mph E5.0 kmh E 4.0 mph6.4 kmh 29.86 in1011.2 mb - 0.00 in0.0 mm 0.00 in0.0 mm
05:10 PM 68.6°F20.3°C 62.9°F17.2°C 82% 1.9 mph ENE3.1 kmh ENE 5.0 mph8.0 kmh 29.85 in1010.8 mb - 0.00 in0.0 mm 0.00 in0.0 mm
05:00 PM 68.7°F20.4°C 63.3°F17.4°C 83% 1.9 mph NE3.1 kmh NE 3.0 mph4.8 kmh 29.85 in1010.8 mb - 0.00 in0.0 mm 0.00 in0.0 mm
04:50 PM 69.0°F20.6°C 62.9°F17.2°C 81% 2.6 mph NE4.2 kmh NE 6.0 mph9.7 kmh 29.85 in1010.8 mb - 0.00 in0.0 mm 0.00 in0.0 mm
04:40 PM 69.2°F20.7°C 62.8°F17.1°C 80% 3.4 mph NE5.5 kmh NE 7.0 mph11.3 kmh 29.85 in1010.8 mb - 0.00 in0.0 mm 0.00 in0.0 mm
04:30 PM 69.5°F20.8°C 63.1°F17.3°C 80% 0.9 mph NE1.4 kmh NE -- 29.84 in1010.5 mb - 0.00 in0.0 mm 0.00 in0.0 mm
04:20 PM 69.9°F21.1°C 63.4°F17.4°C 80% 1.2 mph NE1.9 kmh NE 6.0 mph9.7 kmh 29.84 in1010.5 mb - 0.00 in0.0 mm 0.00 in0.0 mm
04:10 PM 70.4°F21.3°C 63.6°F17.6°C 79% 5.3 mph NE8.5 kmh NE 9.0 mph14.5 kmh 29.84 in1010.5 mb - 0.00 in0.0 mm 0.00 in0.0 mm
04:00 PM 70.7°F21.5°C 63.5°F17.5°C 78% 1.7 mph NNE2.7 kmh NNE 8.0 mph12.9 kmh 29.84 in1010.5 mb - 0.00 in0.0 mm 0.00 in0.0 mm
03:50 PM 71.5°F21.9°C 64.3°F17.9°C 78% 0.7 mph NE1.1 kmh NE 6.0 mph9.7 kmh 29.85 in1010.8 mb - 0.00 in0.0 mm 0.00 in0.0 mm
03:40 PM 72.1°F22.3°C 65.6°F18.7°C 80% 3.9 mph NE6.3 kmh NE 9.0 mph14.5 kmh 29.85 in1010.8 mb - 0.00 in0.0 mm 0.00 in0.0 mm
03:30 PM 71.6°F22.0°C 64.0°F17.8°C 77% 3.6 mph NE5.8 kmh NE 3.0 mph4.8 kmh 29.85 in1010.8 mb - 0.00 in0.0 mm 0.00 in0.0 mm
03:20 PM 71.9°F22.2°C 63.9°F17.7°C 76% 3.8 mph NE6.1 kmh NE 7.0 mph11.3 kmh 29.85 in1010.8 mb - 0.00 in0.0 mm 0.00 in0.0 mm
03:10 PM 72.3°F22.4°C 63.9°F17.7°C 75% 5.6 mph ENE9.0 kmh ENE 5.0 mph8.0 kmh 29.85 in1010.8 mb - 0.00 in0.0 mm 0.00 in0.0 mm
03:00 PM 72.4°F22.4°C 63.7°F17.6°C 74% 4.7 mph NE7.6 kmh NE 7.0 mph11.3 kmh 29.85 in1010.8 mb - 0.00 in0.0 mm 0.00 in0.0 mm
02:50 PM 71.9°F22.2°C 63.2°F17.3°C 74% 3.6 mph ENE5.8 kmh ENE 6.0 mph9.7 kmh 29.85 in1010.8 mb - 0.00 in0.0 mm 0.00 in0.0 mm
02:40 PM 71.3°F21.8°C 63.0°F17.2°C 75% 3.4 mph NE5.5 kmh NE 2.0 mph3.2 kmh 29.86 in1011.2 mb - 0.00 in0.0 mm 0.00 in0.0 mm
02:30 PM 71.6°F22.0°C 63.7°F17.6°C 76% 4.8 mph NE7.7 kmh NE 8.0 mph12.9 kmh 29.86 in1011.2 mb - 0.00 in0.0 mm 0.00 in0.0 mm
02:20 PM 72.7°F22.6°C 63.9°F17.7°C 74% 3.2 mph NNE5.1 kmh NNE 7.0 mph11.3 kmh 29.86 in1011.2 mb - 0.00 in0.0 mm 0.00 in0.0 mm
02:10 PM 73.3°F22.9°C 64.5°F18.1°C 74% 3.8 mph N6.1 kmh N 6.0 mph9.7 kmh 29.86 in1011.2 mb - 0.00 in0.0 mm 0.00 in0.0 mm
02:00 PM 73.9°F23.3°C 64.7°F18.2°C 73% 3.3 mph N5.3 kmh N 2.0 mph3.2 kmh 29.86 in1011.2 mb - 0.00 in0.0 mm 0.00 in0.0 mm
01:50 PM 74.1°F23.4°C 64.9°F18.3°C 73% 4.2 mph NE6.8 kmh NE 7.0 mph11.3 kmh 29.86 in1011.2 mb - 0.00 in0.0 mm 0.00 in0.0 mm
01:40 PM 73.7°F23.2°C 64.5°F18.1°C 73% 5.1 mph NNE8.2 kmh NNE 7.0 mph11.3 kmh 29.87 in1011.5 mb - 0.00 in0.0 mm 0.00 in0.0 mm
01:30 PM 73.6°F23.1°C 64.0°F17.8°C 72% 1.7 mph NNE2.7 kmh NNE 5.0 mph8.0 kmh 29.87 in1011.5 mb - 0.00 in0.0 mm 0.00 in0.0 mm
01:20 PM 73.7°F23.2°C 64.5°F18.1°C 73% 2.9 mph N4.7 kmh N 4.0 mph6.4 kmh 29.87 in1011.5 mb - 0.00 in0.0 mm 0.00 in0.0 mm
01:10 PM 74.3°F23.5°C 64.3°F17.9°C 71% 3.6 mph NNW5.8 kmh NNW 5.0 mph8.0 kmh 29.87 in1011.5 mb - 0.00 in0.0 mm 0.00 in0.0 mm
01:00 PM 74.9°F23.8°C 64.4°F18.0°C 70% 2.5 mph N4.0 kmh N 7.0 mph11.3 kmh 29.88 in1011.9 mb - 0.00 in0.0 mm 0.00 in0.0 mm
12:50 PM 74.7°F23.7°C 65.1°F18.4°C 72% 4.9 mph N7.9 kmh N 7.0 mph11.3 kmh 29.88 in1011.9 mb - 0.00 in0.0 mm 0.00 in0.0 mm
12:40 PM 74.2°F23.4°C 64.2°F17.9°C 71% 2.8 mph N4.5 kmh N 3.0 mph4.8 kmh 29.88 in1011.9 mb - 0.00 in0.0 mm 0.00 in0.0 mm
12:30 PM 73.8°F23.2°C 64.6°F18.1°C 73% Calm Calm -- 29.88 in1011.9 mb - 0.00 in0.0 mm 0.00 in0.0 mm
12:20 PM 74.1°F23.4°C 64.1°F17.8°C 71% 5.3 mph N8.5 kmh N 8.0 mph12.9 kmh 29.89 in1012.2 mb - 0.00 in0.0 mm 0.00 in0.0 mm
12:10 PM 73.9°F23.3°C 64.7°F18.2°C 73% 4.7 mph N7.6 kmh N 6.0 mph9.7 kmh 29.89 in1012.2 mb - 0.00 in0.0 mm 0.00 in0.0 mm
12:00 PM 74.1°F23.4°C 64.1°F17.8°C 71% 2.8 mph NNW4.5 kmh NNW 3.0 mph4.8 kmh 29.89 in1012.2 mb - 0.00 in0.0 mm 0.00 in0.0 mm
11:50 AM 74.5°F23.6°C 63.2°F17.3°C 68% 4.4 mph N7.1 kmh N 7.0 mph11.3 kmh 29.89 in1012.2 mb - 0.00 in0.0 mm 0.00 in0.0 mm
11:40 AM 74.9°F23.8°C 64.0°F17.8°C 69% 2.7 mph N4.3 kmh N 5.0 mph8.0 kmh 29.89 in1012.2 mb - 0.00 in0.0 mm 0.00 in0.0 mm
11:30 AM 74.8°F23.8°C 64.4°F18.0°C 70% 4.1 mph NNE6.6 kmh NNE 5.0 mph8.0 kmh 29.89 in1012.2 mb - 0.00 in0.0 mm 0.00 in0.0 mm
11:20 AM 74.4°F23.6°C 64.0°F17.8°C 70% 4.4 mph N7.1 kmh N 8.0 mph12.9 kmh 29.89 in1012.2 mb - 0.00 in0.0 mm 0.00 in0.0 mm
11:10 AM 73.7°F23.2°C 63.7°F17.6°C 71% 3.9 mph NNE6.3 kmh NNE 6.0 mph9.7 kmh 29.89 in1012.2 mb - 0.00 in0.0 mm 0.00 in0.0 mm
11:00 AM 73.6°F23.1°C 63.6°F17.6°C 71% 4.1 mph N6.6 kmh N 7.0 mph11.3 kmh 29.89 in1012.2 mb - 0.00 in0.0 mm 0.00 in0.0 mm
10:50 AM 74.0°F23.3°C 62.7°F17.1°C 68% Calm Calm -- 29.89 in1012.2 mb - 0.00 in0.0 mm 0.00 in0.0 mm
10:40 AM 73.2°F22.9°C 62.8°F17.1°C 70% 4.5 mph N7.2 kmh N 6.0 mph9.7 kmh 29.89 in1012.2 mb - 0.00 in0.0 mm 0.00 in0.0 mm
10:30 AM 73.1°F22.8°C 62.3°F16.8°C 69% Calm Calm -- 29.90 in1012.5 mb - 0.00 in0.0 mm 0.00 in0.0 mm
10:20 AM 72.6°F22.6°C 62.6°F17.0°C 71% 0.5 mph N0.8 kmh N 5.0 mph8.0 kmh 29.90 in1012.5 mb - 0.00 in0.0 mm 0.00 in0.0 mm
10:10 AM 72.0°F22.2°C 63.3°F17.4°C 74% 1.1 mph NNE1.8 kmh NNE 3.0 mph4.8 kmh 29.89 in1012.2 mb - 0.00 in0.0 mm 0.00 in0.0 mm
10:00 AM 71.5°F21.9°C 63.6°F17.6°C 76% 4.8 mph N7.7 kmh N 5.0 mph8.0 kmh 29.90 in1012.5 mb - 0.00 in0.0 mm 0.00 in0.0 mm
09:50 AM 71.4°F21.9°C 63.8°F17.7°C 77% 3.4 mph NNW5.5 kmh NNW 5.0 mph8.0 kmh 29.90 in1012.5 mb - 0.00 in0.0 mm 0.00 in0.0 mm
09:40 AM 71.6°F22.0°C 63.6°F17.6°C 76% 2.6 mph NNW4.2 kmh NNW 4.0 mph6.4 kmh 29.90 in1012.5 mb - 0.00 in0.0 mm 0.00 in0.0 mm
09:30 AM 72.2°F22.3°C 64.2°F17.9°C 76% 0.3 mph NNW0.5 kmh NNW -- 29.90 in1012.5 mb - 0.00 in0.0 mm 0.00 in0.0 mm
09:20 AM 72.6°F22.6°C 63.8°F17.7°C 74% 0.5 mph NNE0.8 kmh NNE -- 29.90 in1012.5 mb - 0.00 in0.0 mm 0.00 in0.0 mm
09:10 AM 72.3°F22.4°C 62.8°F17.1°C 72% 3.5 mph NE5.6 kmh NE 5.0 mph8.0 kmh 29.90 in1012.5 mb - 0.00 in0.0 mm 0.00 in0.0 mm
09:00 AM 71.5°F21.9°C 63.9°F17.7°C 77% 2.6 mph NE4.2 kmh NE 7.0 mph11.3 kmh 29.90 in1012.5 mb - 0.00 in0.0 mm 0.00 in0.0 mm
08:50 AM 69.9°F21.1°C 61.6°F16.4°C 75% 1.6 mph NE2.6 kmh NE 2.0 mph3.2 kmh 29.89 in1012.2 mb - 0.00 in0.0 mm 0.00 in0.0 mm
08:40 AM 69.3°F20.7°C 61.0°F16.1°C 75% 1.0 mph NE1.6 kmh NE 5.0 mph8.0 kmh 29.89 in1012.2 mb - 0.00 in0.0 mm 0.00 in0.0 mm
08:30 AM 68.6°F20.3°C 61.4°F16.3°C 78% Calm Calm -- 29.89 in1012.2 mb - 0.00 in0.0 mm 0.00 in0.0 mm
08:20 AM 67.8°F19.9°C 61.4°F16.3°C 80% Calm Calm -- 29.89 in1012.2 mb - 0.00 in0.0 mm 0.00 in0.0 mm
08:10 AM 67.2°F19.6°C 61.5°F16.4°C 82% Calm Calm -- 29.89 in1012.2 mb - 0.00 in0.0 mm 0.00 in0.0 mm
08:00 AM 66.3°F19.1°C 60.3°F15.7°C 81% Calm Calm -- 29.89 in1012.2 mb - 0.00 in0.0 mm 0.00 in0.0 mm
07:50 AM 65.2°F18.4°C 58.5°F14.7°C 79% Calm Calm -- 29.89 in1012.2 mb - 0.00 in0.0 mm 0.00 in0.0 mm
07:40 AM 63.8°F17.7°C 57.8°F14.3°C 81% Calm Calm -- 29.89 in1012.2 mb - 0.00 in0.0 mm 0.00 in0.0 mm
07:30 AM 62.6°F17.0°C 57.7°F14.3°C 84% Calm Calm -- 29.89 in1012.2 mb - 0.00 in0.0 mm 0.00 in0.0 mm
07:20 AM 61.3°F16.3°C 57.7°F14.3°C 88% Calm Calm -- 29.89 in1012.2 mb - 0.00 in0.0 mm 0.00 in0.0 mm
07:10 AM 60.0°F15.6°C 57.4°F14.1°C 91% Calm Calm -- 29.88 in1011.9 mb - 0.00 in0.0 mm 0.00 in0.0 mm
07:00 AM 59.1°F15.1°C 56.2°F13.4°C 90% Calm Calm -- 29.88 in1011.9 mb - 0.00 in0.0 mm 0.00 in0.0 mm
06:50 AM 58.2°F14.6°C 55.6°F13.1°C 91% Calm Calm -- 29.88 in1011.9 mb - 0.00 in0.0 mm 0.00 in0.0 mm
06:40 AM 57.5°F14.2°C 54.9°F12.7°C 91% Calm Calm -- 29.88 in1011.9 mb - 0.00 in0.0 mm 0.00 in0.0 mm
06:30 AM 56.9°F13.8°C 54.3°F12.4°C 91% Calm Calm -- 29.87 in1011.5 mb - 0.00 in0.0 mm 0.00 in0.0 mm
06:20 AM 56.7°F13.7°C 53.8°F12.1°C 90% 1.3 mph NE2.1 kmh NE 2.0 mph3.2 kmh 29.87 in1011.5 mb - 0.00 in0.0 mm 0.00 in0.0 mm
06:10 AM 56.6°F13.7°C 53.7°F12.1°C 90% 0.1 mph NE0.2 kmh NE -- 29.87 in1011.5 mb - 0.00 in0.0 mm 0.00 in0.0 mm
06:00 AM 56.4°F13.6°C 53.8°F12.1°C 91% Calm Calm -- 29.86 in1011.2 mb - 0.00 in0.0 mm 0.00 in0.0 mm
05:50 AM 56.3°F13.5°C 53.4°F11.9°C 90% Calm Calm -- 29.86 in1011.2 mb - 0.00 in0.0 mm 0.00 in0.0 mm
05:40 AM 56.3°F13.5°C 53.7°F12.1°C 91% Calm Calm -- 29.86 in1011.2 mb - 0.00 in0.0 mm 0.00 in0.0 mm
05:30 AM 56.4°F13.6°C 53.8°F12.1°C 91% Calm Calm -- 29.86 in1011.2 mb - 0.00 in0.0 mm 0.00 in0.0 mm
05:20 AM 56.4°F13.6°C 53.8°F12.1°C 91% Calm Calm -- 29.86 in1011.2 mb - 0.00 in0.0 mm 0.00 in0.0 mm
05:10 AM 56.3°F13.5°C 53.7°F12.1°C 91% Calm Calm -- 29.86 in1011.2 mb - 0.00 in0.0 mm 0.00 in0.0 mm
05:00 AM 56.4°F13.6°C 53.8°F12.1°C 91% Calm Calm -- 29.86 in1011.2 mb - 0.00 in0.0 mm 0.00 in0.0 mm
04:50 AM 56.6°F13.7°C 54.0°F12.2°C 91% Calm Calm -- 29.86 in1011.2 mb - 0.00 in0.0 mm 0.00 in0.0 mm
04:40 AM 56.8°F13.8°C 53.9°F12.2°C 90% Calm Calm -- 29.86 in1011.2 mb - 0.00 in0.0 mm 0.00 in0.0 mm
04:30 AM 56.9°F13.8°C 54.0°F12.2°C 90% Calm Calm -- 29.86 in1011.2 mb - 0.00 in0.0 mm 0.00 in0.0 mm
04:20 AM 57.2°F14.0°C 54.0°F12.2°C 89% Calm Calm -- 29.86 in1011.2 mb - 0.00 in0.0 mm 0.00 in0.0 mm
04:10 AM 57.7°F14.3°C 54.5°F12.5°C 89% Calm Calm -- 29.85 in1010.8 mb - 0.00 in0.0 mm 0.00 in0.0 mm
04:00 AM 58.1°F14.5°C 54.9°F12.7°C 89% Calm Calm -- 29.85 in1010.8 mb - 0.00 in0.0 mm 0.00 in0.0 mm
03:50 AM 58.6°F14.8°C 55.3°F12.9°C 89% Calm Calm -- 29.85 in1010.8 mb - 0.00 in0.0 mm 0.00 in0.0 mm
03:40 AM 58.9°F14.9°C 56.0°F13.3°C 90% Calm Calm -- 29.85 in1010.8 mb - 0.00 in0.0 mm 0.00 in0.0 mm
03:30 AM 59.1°F15.1°C 56.2°F13.4°C 90% Calm Calm -- 29.85 in1010.8 mb - 0.00 in0.0 mm 0.00 in0.0 mm
03:20 AM 59.3°F15.2°C 56.4°F13.6°C 90% Calm Calm -- 29.86 in1011.2 mb - 0.00 in0.0 mm 0.00 in0.0 mm
03:10 AM 59.3°F15.2°C 56.7°F13.7°C 91% Calm Calm -- 29.86 in1011.2 mb - 0.00 in0.0 mm 0.00 in0.0 mm
03:00 AM 59.0°F15.0°C 56.0°F13.3°C 90% Calm Calm -- 29.86 in1011.2 mb - 0.00 in0.0 mm 0.00 in0.0 mm
02:50 AM 58.7°F14.8°C 55.8°F13.2°C 90% Calm Calm -- 29.86 in1011.2 mb - 0.00 in0.0 mm 0.00 in0.0 mm
02:40 AM 58.3°F14.6°C 55.4°F13.0°C 90% Calm Calm -- 29.86 in1011.2 mb - 0.00 in0.0 mm 0.00 in0.0 mm
02:30 AM 58.1°F14.5°C 55.2°F12.9°C 90% Calm Calm -- 29.86 in1011.2 mb - 0.00 in0.0 mm 0.00 in0.0 mm
02:20 AM 58.1°F14.5°C 54.9°F12.7°C 89% Calm Calm -- 29.86 in1011.2 mb - 0.00 in0.0 mm 0.00 in0.0 mm
02:10 AM 58.1°F14.5°C 55.2°F12.9°C 90% Calm Calm -- 29.87 in1011.5 mb - 0.00 in0.0 mm 0.00 in0.0 mm
02:00 AM 58.2°F14.6°C 55.3°F12.9°C 90% Calm Calm -- 29.87 in1011.5 mb - 0.00 in0.0 mm 0.00 in0.0 mm
01:50 AM 58.2°F14.6°C 55.3°F12.9°C 90% Calm Calm -- 29.87 in1011.5 mb - 0.00 in0.0 mm 0.00 in0.0 mm
01:40 AM 58.4°F14.7°C 55.2°F12.9°C 89% Calm Calm -- 29.87 in1011.5 mb - 0.00 in0.0 mm 0.00 in0.0 mm
01:30 AM 58.5°F14.7°C 55.3°F12.9°C 89% Calm Calm -- 29.87 in1011.5 mb - 0.00 in0.0 mm 0.00 in0.0 mm
01:20 AM 58.5°F14.7°C 55.3°F12.9°C 89% Calm Calm -- 29.88 in1011.9 mb - 0.00 in0.0 mm 0.00 in0.0 mm
01:10 AM 58.6°F14.8°C 55.4°F13.0°C 89% Calm Calm -- 29.88 in1011.9 mb - 0.00 in0.0 mm 0.00 in0.0 mm
01:00 AM 58.6°F14.8°C 55.4°F13.0°C 89% Calm Calm -- 29.88 in1011.9 mb - 0.00 in0.0 mm 0.00 in0.0 mm
12:50 AM 58.7°F14.8°C 55.5°F13.1°C 89% Calm Calm -- 29.88 in1011.9 mb - 0.00 in0.0 mm 0.00 in0.0 mm
12:40 AM 58.8°F14.9°C 55.6°F13.1°C 89% Calm Calm -- 29.89 in1012.2 mb - 0.00 in0.0 mm 0.00 in0.0 mm
12:30 AM 58.9°F14.9°C 55.7°F13.2°C 89% Calm Calm -- 29.89 in1012.2 mb - 0.00 in0.0 mm 0.00 in0.0 mm
12:20 AM 59.1°F15.1°C 55.5°F13.1°C 88% Calm Calm -- 29.89 in1012.2 mb - 0.00 in0.0 mm 0.00 in0.0 mm
12:10 AM 59.2°F15.1°C 55.6°F13.1°C 88% Calm Calm -- 29.90 in1012.5 mb - 0.00 in0.0 mm 0.00 in0.0 mm
12:00 AM 59.2°F15.1°C 56.0°F13.3°C 89% Calm Calm -- 29.90 in1012.5 mb - 0.00 in0.0 mm 0.00 in0.0 mm